sensor_id;sensor_type;location;lat;lon;timestamp;temperature;humidity
1778;DHT22;886;50.082;8.222;2022-11-15T00:01:52;9.10;99.90
1778;DHT22;886;50.082;8.222;2022-11-15T00:04:23;9.10;99.90
1778;DHT22;886;50.082;8.222;2022-11-15T00:06:50;9.00;99.90
1778;DHT22;886;50.082;8.222;2022-11-15T00:09:23;9.00;99.90
1778;DHT22;886;50.082;8.222;2022-11-15T00:11:52;9.00;99.90
1778;DHT22;886;50.082;8.222;2022-11-15T00:14:19;9.00;99.90
1778;DHT22;886;50.082;8.222;2022-11-15T00:16:46;9.00;99.90
1778;DHT22;886;50.082;8.222;2022-11-15T00:19:13;9.00;99.90
1778;DHT22;886;50.082;8.222;2022-11-15T00:21:55;8.90;99.90
1778;DHT22;886;50.082;8.222;2022-11-15T00:24:24;9.00;99.90
1778;DHT22;886;50.082;8.222;2022-11-15T00:26:53;9.00;99.90
1778;DHT22;886;50.082;8.222;2022-11-15T00:29:20;9.00;99.90
1778;DHT22;886;50.082;8.222;2022-11-15T00:31:47;9.00;99.90
1778;DHT22;886;50.082;8.222;2022-11-15T00:34:17;9.00;99.90
1778;DHT22;886;50.082;8.222;2022-11-15T00:36:50;8.90;99.90
1778;DHT22;886;50.082;8.222;2022-11-15T00:39:17;8.90;99.90
1778;DHT22;886;50.082;8.222;2022-11-15T00:41:44;8.90;99.90
1778;DHT22;886;50.082;8.222;2022-11-15T00:44:18;8.90;99.90
1778;DHT22;886;50.082;8.222;2022-11-15T00:46:51;8.90;99.90
1778;DHT22;886;50.082;8.222;2022-11-15T00:49:21;8.90;99.90
1778;DHT22;886;50.082;8.222;2022-11-15T00:51:48;9.10;99.90
1778;DHT22;886;50.082;8.222;2022-11-15T00:54:23;9.10;99.90
1778;DHT22;886;50.082;8.222;2022-11-15T00:56:55;9.00;99.90
1778;DHT22;886;50.082;8.222;2022-11-15T00:59:41;9.10;99.90
1778;DHT22;886;50.082;8.222;2022-11-15T01:02:11;9.10;99.90
1778;DHT22;886;50.082;8.222;2022-11-15T01:04:44;9.10;99.90
1778;DHT22;886;50.082;8.222;2022-11-15T01:07:23;9.00;99.90
1778;DHT22;886;50.082;8.222;2022-11-15T01:09:53;9.00;99.90
1778;DHT22;886;50.082;8.222;2022-11-15T01:12:20;9.10;99.90
1778;DHT22;886;50.082;8.222;2022-11-15T01:14:49;9.00;99.90
1778;DHT22;886;50.082;8.222;2022-11-15T01:17:22;9.00;99.90
1778;DHT22;886;50.082;8.222;2022-11-15T01:19:53;9.10;99.90
1778;DHT22;886;50.082;8.222;2022-11-15T01:22:20;9.10;99.90
1778;DHT22;886;50.082;8.222;2022-11-15T01:24:52;9.30;99.90
1778;DHT22;886;50.082;8.222;2022-11-15T01:27:19;9.30;99.90
1778;DHT22;886;50.082;8.222;2022-11-15T01:29:48;9.30;99.90
1778;DHT22;886;50.082;8.222;2022-11-15T01:32:17;9.20;99.90
1778;DHT22;886;50.082;8.222;2022-11-15T01:34:47;9.10;99.90
1778;DHT22;886;50.082;8.222;2022-11-15T01:37:26;9.20;99.90
1778;DHT22;886;50.082;8.222;2022-11-15T01:39:53;9.20;99.90
1778;DHT22;886;50.082;8.222;2022-11-15T01:42:20;9.20;99.90
1778;DHT22;886;50.082;8.222;2022-11-15T01:44:51;9.30;99.90
1778;DHT22;886;50.082;8.222;2022-11-15T01:47:24;9.30;99.90
1778;DHT22;886;50.082;8.222;2022-11-15T01:49:56;9.40;99.90
1778;DHT22;886;50.082;8.222;2022-11-15T01:52:30;9.50;99.90
1778;DHT22;886;50.082;8.222;2022-11-15T01:55:03;9.60;99.90
1778;DHT22;886;50.082;8.222;2022-11-15T01:57:36;9.60;99.90
1778;DHT22;886;50.082;8.222;2022-11-15T02:00:06;9.50;99.90
1778;DHT22;886;50.082;8.222;2022-11-15T02:02:36;9.40;99.90
1778;DHT22;886;50.082;8.222;2022-11-15T02:05:04;9.40;99.90
1778;DHT22;886;50.082;8.222;2022-11-15T02:07:35;9.30;99.90
1778;DHT22;886;50.082;8.222;2022-11-15T02:10:07;9.40;99.90
1778;DHT22;886;50.082;8.222;2022-11-15T02:12:38;9.40;99.90
1778;DHT22;886;50.082;8.222;2022-11-15T02:15:15;9.40;99.90
1778;DHT22;886;50.082;8.222;2022-11-15T02:17:56;9.40;99.90
1778;DHT22;886;50.082;8.222;2022-11-15T02:21:05;9.30;99.90
1778;DHT22;886;50.082;8.222;2022-11-15T02:24:20;9.30;99.90
1778;DHT22;886;50.082;8.222;2022-11-15T02:30:29;9.30;99.90
1778;DHT22;886;50.082;8.222;2022-11-15T02:33:06;9.30;99.90
1778;DHT22;886;50.082;8.222;2022-11-15T02:35:44;9.40;99.90
1778;DHT22;886;50.082;8.222;2022-11-15T02:38:24;9.40;99.90
1778;DHT22;886;50.082;8.222;2022-11-15T02:41:02;9.40;99.90
1778;DHT22;886;50.082;8.222;2022-11-15T02:43:38;9.40;99.90
1778;DHT22;886;50.082;8.222;2022-11-15T02:46:33;9.30;99.90
1778;DHT22;886;50.082;8.222;2022-11-15T02:49:23;9.40;99.90
1778;DHT22;886;50.082;8.222;2022-11-15T02:51:57;9.50;99.90
1778;DHT22;886;50.082;8.222;2022-11-15T02:54:29;9.40;99.90
1778;DHT22;886;50.082;8.222;2022-11-15T02:57:03;9.50;99.90
1778;DHT22;886;50.082;8.222;2022-11-15T03:00:07;9.40;99.90
1778;DHT22;886;50.082;8.222;2022-11-15T03:03:08;9.50;99.90
1778;DHT22;886;50.082;8.222;2022-11-15T03:05:52;9.50;99.90
1778;DHT22;886;50.082;8.222;2022-11-15T03:08:31;9.50;99.90
1778;DHT22;886;50.082;8.222;2022-11-15T03:11:07;9.50;99.90
1778;DHT22;886;50.082;8.222;2022-11-15T03:13:42;9.60;99.90
1778;DHT22;886;50.082;8.222;2022-11-15T03:16:18;9.60;99.90
1778;DHT22;886;50.082;8.222;2022-11-15T03:18:55;9.60;99.90
1778;DHT22;886;50.082;8.222;2022-11-15T03:21:25;9.60;99.90
1778;DHT22;886;50.082;8.222;2022-11-15T03:23:54;9.60;99.90
1778;DHT22;886;50.082;8.222;2022-11-15T03:26:48;9.70;99.90
1778;DHT22;886;50.082;8.222;2022-11-15T03:29:22;9.60;99.90
1778;DHT22;886;50.082;8.222;2022-11-15T03:31:57;9.60;99.90
1778;DHT22;886;50.082;8.222;2022-11-15T03:34:34;9.60;99.90
1778;DHT22;886;50.082;8.222;2022-11-15T03:37:04;9.50;99.90
1778;DHT22;886;50.082;8.222;2022-11-15T03:39:33;9.50;99.90
1778;DHT22;886;50.082;8.222;2022-11-15T03:42:12;9.50;99.90
1778;DHT22;886;50.082;8.222;2022-11-15T03:45:01;9.50;99.90
1778;DHT22;886;50.082;8.222;2022-11-15T03:47:41;9.50;99.90
1778;DHT22;886;50.082;8.222;2022-11-15T03:50:17;9.50;99.90
1778;DHT22;886;50.082;8.222;2022-11-15T03:52:49;9.50;99.90
1778;DHT22;886;50.082;8.222;2022-11-15T03:55:20;9.50;99.90
1778;DHT22;886;50.082;8.222;2022-11-15T03:57:57;9.60;99.90
1778;DHT22;886;50.082;8.222;2022-11-15T04:00:25;9.60;99.90
1778;DHT22;886;50.082;8.222;2022-11-15T04:02:53;9.60;99.90
1778;DHT22;886;50.082;8.222;2022-11-15T04:05:24;9.60;99.90
1778;DHT22;886;50.082;8.222;2022-11-15T04:07:56;9.60;99.90
1778;DHT22;886;50.082;8.222;2022-11-15T04:10:30;9.60;99.90
1778;DHT22;886;50.082;8.222;2022-11-15T04:12:57;9.60;99.90
1778;DHT22;886;50.082;8.222;2022-11-15T04:15:27;9.50;99.90
1778;DHT22;886;50.082;8.222;2022-11-15T04:17:57;9.60;99.90
1778;DHT22;886;50.082;8.222;2022-11-15T04:20:27;9.50;99.90
1778;DHT22;886;50.082;8.222;2022-11-15T04:23:18;9.60;99.90
1778;DHT22;886;50.082;8.222;2022-11-15T04:26:06;9.60;99.90
1778;DHT22;886;50.082;8.222;2022-11-15T04:28:36;9.50;99.90
1778;DHT22;886;50.082;8.222;2022-11-15T04:31:30;9.60;99.90
1778;DHT22;886;50.082;8.222;2022-11-15T04:33:57;9.60;99.90
1778;DHT22;886;50.082;8.222;2022-11-15T04:36:28;9.60;99.90
1778;DHT22;886;50.082;8.222;2022-11-15T04:39:17;9.70;99.90
1778;DHT22;886;50.082;8.222;2022-11-15T04:41:53;9.70;99.90
1778;DHT22;886;50.082;8.222;2022-11-15T04:44:20;9.70;99.90
1778;DHT22;886;50.082;8.222;2022-11-15T04:46:50;9.80;99.90
1778;DHT22;886;50.082;8.222;2022-11-15T04:49:17;9.80;99.90
1778;DHT22;886;50.082;8.222;2022-11-15T04:51:46;9.80;99.90
1778;DHT22;886;50.082;8.222;2022-11-15T04:54:19;9.90;99.90
1778;DHT22;886;50.082;8.222;2022-11-15T04:56:48;9.90;99.90
1778;DHT22;886;50.082;8.222;2022-11-15T04:59:18;9.90;99.90
1778;DHT22;886;50.082;8.222;2022-11-15T05:01:45;9.90;99.90
1778;DHT22;886;50.082;8.222;2022-11-15T05:04:15;9.80;99.90
1778;DHT22;886;50.082;8.222;2022-11-15T05:06:59;9.80;99.90
1778;DHT22;886;50.082;8.222;2022-11-15T05:09:39;9.80;99.90
1778;DHT22;886;50.082;8.222;2022-11-15T05:12:09;9.80;99.90
1778;DHT22;886;50.082;8.222;2022-11-15T05:14:39;9.90;99.90
1778;DHT22;886;50.082;8.222;2022-11-15T05:17:06;9.90;99.90
1778;DHT22;886;50.082;8.222;2022-11-15T05:19:33;10.00;99.90
1778;DHT22;886;50.082;8.222;2022-11-15T05:22:01;10.00;99.90
1778;DHT22;886;50.082;8.222;2022-11-15T05:27:01;10.00;99.90
1778;DHT22;886;50.082;8.222;2022-11-15T05:29:28;10.00;99.90
1778;DHT22;886;50.082;8.222;2022-11-15T05:31:58;10.00;99.90
1778;DHT22;886;50.082;8.222;2022-11-15T05:34:26;9.90;99.90
1778;DHT22;886;50.082;8.222;2022-11-15T05:36:53;9.90;99.90
1778;DHT22;886;50.082;8.222;2022-11-15T05:39:24;9.90;99.90
1778;DHT22;886;50.082;8.222;2022-11-15T05:41:55;9.90;99.90
1778;DHT22;886;50.082;8.222;2022-11-15T05:44:27;10.00;99.90
1778;DHT22;886;50.082;8.222;2022-11-15T05:46:56;10.10;99.90
1778;DHT22;886;50.082;8.222;2022-11-15T05:49:26;10.10;99.90
1778;DHT22;886;50.082;8.222;2022-11-15T05:51:56;10.10;99.90
1778;DHT22;886;50.082;8.222;2022-11-15T05:54:26;10.00;99.90
1778;DHT22;886;50.082;8.222;2022-11-15T05:56:53;9.90;99.90
1778;DHT22;886;50.082;8.222;2022-11-15T05:59:22;9.90;99.90
1778;DHT22;886;50.082;8.222;2022-11-15T06:01:49;10.00;99.90
1778;DHT22;886;50.082;8.222;2022-11-15T06:04:18;10.00;99.90
1778;DHT22;886;50.082;8.222;2022-11-15T06:06:45;9.90;99.90
1778;DHT22;886;50.082;8.222;2022-11-15T06:09:18;9.90;99.90
1778;DHT22;886;50.082;8.222;2022-11-15T06:11:52;9.90;99.90
1778;DHT22;886;50.082;8.222;2022-11-15T06:14:19;9.90;99.90
1778;DHT22;886;50.082;8.222;2022-11-15T06:16:49;10.00;99.90
1778;DHT22;886;50.082;8.222;2022-11-15T06:19:25;10.10;99.90
1778;DHT22;886;50.082;8.222;2022-11-15T06:21:58;10.20;99.90
1778;DHT22;886;50.082;8.222;2022-11-15T06:24:31;10.20;99.90
1778;DHT22;886;50.082;8.222;2022-11-15T06:27:05;10.20;99.90
1778;DHT22;886;50.082;8.222;2022-11-15T06:29:38;10.00;99.90
1778;DHT22;886;50.082;8.222;2022-11-15T06:32:22;9.90;99.90
1778;DHT22;886;50.082;8.222;2022-11-15T06:34:55;9.90;99.90
1778;DHT22;886;50.082;8.222;2022-11-15T06:37:25;9.90;99.90
1778;DHT22;886;50.082;8.222;2022-11-15T06:39:52;9.90;99.90
1778;DHT22;886;50.082;8.222;2022-11-15T06:42:23;9.90;99.90
1778;DHT22;886;50.082;8.222;2022-11-15T06:44:50;9.90;99.90
1778;DHT22;886;50.082;8.222;2022-11-15T06:47:23;9.90;99.90
1778;DHT22;886;50.082;8.222;2022-11-15T06:49:53;9.90;99.90
1778;DHT22;886;50.082;8.222;2022-11-15T06:52:26;9.90;99.90
1778;DHT22;886;50.082;8.222;2022-11-15T06:55:06;10.00;99.90
1778;DHT22;886;50.082;8.222;2022-11-15T06:57:35;10.00;99.90
1778;DHT22;886;50.082;8.222;2022-11-15T07:00:03;10.10;99.90
1778;DHT22;886;50.082;8.222;2022-11-15T07:02:34;10.10;99.90
1778;DHT22;886;50.082;8.222;2022-11-15T07:05:05;10.10;99.90
1778;DHT22;886;50.082;8.222;2022-11-15T07:07:35;10.10;99.90
1778;DHT22;886;50.082;8.222;2022-11-15T07:10:07;10.20;99.90
1778;DHT22;886;50.082;8.222;2022-11-15T07:12:39;10.10;99.90
1778;DHT22;886;50.082;8.222;2022-11-15T07:15:12;10.10;99.90
1778;DHT22;886;50.082;8.222;2022-11-15T07:17:42;10.10;99.90
1778;DHT22;886;50.082;8.222;2022-11-15T07:20:09;10.20;99.90
1778;DHT22;886;50.082;8.222;2022-11-15T07:22:43;10.20;99.90
1778;DHT22;886;50.082;8.222;2022-11-15T07:25:11;10.20;99.90
1778;DHT22;886;50.082;8.222;2022-11-15T07:27:40;10.30;99.90
1778;DHT22;886;50.082;8.222;2022-11-15T07:30:11;10.20;99.90
1778;DHT22;886;50.082;8.222;2022-11-15T07:32:47;10.20;99.90
1778;DHT22;886;50.082;8.222;2022-11-15T07:35:14;10.20;99.90
1778;DHT22;886;50.082;8.222;2022-11-15T07:37:44;10.20;99.90
1778;DHT22;886;50.082;8.222;2022-11-15T07:40:17;10.20;99.90
1778;DHT22;886;50.082;8.222;2022-11-15T07:42:48;10.20;99.90
1778;DHT22;886;50.082;8.222;2022-11-15T07:45:24;10.20;99.90
1778;DHT22;886;50.082;8.222;2022-11-15T07:47:54;10.20;99.90
1778;DHT22;886;50.082;8.222;2022-11-15T07:50:23;10.30;99.90
1778;DHT22;886;50.082;8.222;2022-11-15T07:53:04;10.30;99.90
1778;DHT22;886;50.082;8.222;2022-11-15T07:55:31;10.30;99.90
1778;DHT22;886;50.082;8.222;2022-11-15T07:58:03;10.40;99.90
1778;DHT22;886;50.082;8.222;2022-11-15T08:00:37;10.40;99.90
1778;DHT22;886;50.082;8.222;2022-11-15T08:03:09;10.50;99.90
1778;DHT22;886;50.082;8.222;2022-11-15T08:05:38;10.40;99.90
1778;DHT22;886;50.082;8.222;2022-11-15T08:08:06;10.50;99.90
1778;DHT22;886;50.082;8.222;2022-11-15T08:10:34;10.60;99.90
1778;DHT22;886;50.082;8.222;2022-11-15T08:13:09;10.60;99.90
1778;DHT22;886;50.082;8.222;2022-11-15T08:15:37;10.60;99.90
1778;DHT22;886;50.082;8.222;2022-11-15T08:18:06;10.70;99.90
1778;DHT22;886;50.082;8.222;2022-11-15T08:20:38;10.70;99.90
1778;DHT22;886;50.082;8.222;2022-11-15T08:23:10;10.80;99.90
1778;DHT22;886;50.082;8.222;2022-11-15T08:25:38;10.80;99.90
1778;DHT22;886;50.082;8.222;2022-11-15T08:28:08;10.80;99.90
1778;DHT22;886;50.082;8.222;2022-11-15T08:30:38;10.80;99.90
1778;DHT22;886;50.082;8.222;2022-11-15T08:33:13;10.80;99.90
1778;DHT22;886;50.082;8.222;2022-11-15T08:35:41;10.80;99.90
1778;DHT22;886;50.082;8.222;2022-11-15T08:38:09;10.80;99.90
1778;DHT22;886;50.082;8.222;2022-11-15T08:40:36;10.80;99.90
1778;DHT22;886;50.082;8.222;2022-11-15T08:43:04;10.80;99.90
1778;DHT22;886;50.082;8.222;2022-11-15T08:45:34;10.80;99.90
1778;DHT22;886;50.082;8.222;2022-11-15T08:48:02;10.80;99.90
1778;DHT22;886;50.082;8.222;2022-11-15T08:50:30;10.90;99.90
1778;DHT22;886;50.082;8.222;2022-11-15T08:52:57;10.90;99.90
1778;DHT22;886;50.082;8.222;2022-11-15T08:55:35;10.90;99.90
1778;DHT22;886;50.082;8.222;2022-11-15T08:58:03;10.90;99.90
1778;DHT22;886;50.082;8.222;2022-11-15T09:00:31;10.90;99.90
1778;DHT22;886;50.082;8.222;2022-11-15T09:03:06;11.00;99.90
1778;DHT22;886;50.082;8.222;2022-11-15T09:05:36;11.10;99.90
1778;DHT22;886;50.082;8.222;2022-11-15T09:08:08;11.20;99.90
1778;DHT22;886;50.082;8.222;2022-11-15T09:11:04;11.20;99.90
1778;DHT22;886;50.082;8.222;2022-11-15T09:13:32;11.20;99.90
1778;DHT22;886;50.082;8.222;2022-11-15T09:16:01;11.20;99.90
1778;DHT22;886;50.082;8.222;2022-11-15T09:18:32;11.30;99.90
1778;DHT22;886;50.082;8.222;2022-11-15T09:21:00;11.30;99.90
1778;DHT22;886;50.082;8.222;2022-11-15T09:23:29;11.40;99.90
1778;DHT22;886;50.082;8.222;2022-11-15T09:25:59;11.40;99.90
1778;DHT22;886;50.082;8.222;2022-11-15T09:28:27;11.40;99.90
1778;DHT22;886;50.082;8.222;2022-11-15T09:30:57;11.50;99.90
1778;DHT22;886;50.082;8.222;2022-11-15T09:33:27;11.50;99.90
1778;DHT22;886;50.082;8.222;2022-11-15T09:36:00;11.60;99.90
1778;DHT22;886;50.082;8.222;2022-11-15T09:38:28;11.60;99.90
1778;DHT22;886;50.082;8.222;2022-11-15T09:41:10;11.60;99.90
1778;DHT22;886;50.082;8.222;2022-11-15T09:43:53;11.60;99.90
1778;DHT22;886;50.082;8.222;2022-11-15T09:46:33;11.60;99.90
1778;DHT22;886;50.082;8.222;2022-11-15T09:49:11;11.60;99.90
1778;DHT22;886;50.082;8.222;2022-11-15T09:51:43;11.70;99.90
1778;DHT22;886;50.082;8.222;2022-11-15T09:54:25;11.70;99.90
1778;DHT22;886;50.082;8.222;2022-11-15T09:57:15;11.70;99.90
1778;DHT22;886;50.082;8.222;2022-11-15T10:00:06;11.80;99.90
1778;DHT22;886;50.082;8.222;2022-11-15T10:03:12;11.90;99.90
1778;DHT22;886;50.082;8.222;2022-11-15T10:05:46;11.90;99.90
1778;DHT22;886;50.082;8.222;2022-11-15T10:08:29;11.90;99.90
1778;DHT22;886;50.082;8.222;2022-11-15T10:11:02;11.90;99.90
1778;DHT22;886;50.082;8.222;2022-11-15T10:13:55;12.00;99.90
1778;DHT22;886;50.082;8.222;2022-11-15T10:19:39;12.10;99.90
1778;DHT22;886;50.082;8.222;2022-11-15T10:22:35;12.10;99.90
1778;DHT22;886;50.082;8.222;2022-11-15T10:25:21;12.30;99.90
1778;DHT22;886;50.082;8.222;2022-11-15T10:28:00;12.30;99.90
1778;DHT22;886;50.082;8.222;2022-11-15T10:30:33;12.20;99.90
1778;DHT22;886;50.082;8.222;2022-11-15T10:36:18;12.20;99.90
1778;DHT22;886;50.082;8.222;2022-11-15T10:38:54;12.20;99.90
1778;DHT22;886;50.082;8.222;2022-11-15T10:41:30;12.20;99.90
1778;DHT22;886;50.082;8.222;2022-11-15T10:44:21;12.30;99.90
1778;DHT22;886;50.082;8.222;2022-11-15T10:47:26;12.30;99.90
1778;DHT22;886;50.082;8.222;2022-11-15T10:50:00;12.40;99.90
1778;DHT22;886;50.082;8.222;2022-11-15T10:52:30;12.40;99.90
1778;DHT22;886;50.082;8.222;2022-11-15T10:55:12;12.40;99.90
1778;DHT22;886;50.082;8.222;2022-11-15T10:57:50;12.40;99.90
1778;DHT22;886;50.082;8.222;2022-11-15T11:00:36;12.40;99.90
1778;DHT22;886;50.082;8.222;2022-11-15T11:03:27;12.40;99.90
1778;DHT22;886;50.082;8.222;2022-11-15T11:06:08;12.30;99.90
1778;DHT22;886;50.082;8.222;2022-11-15T11:08:37;12.30;99.90
1778;DHT22;886;50.082;8.222;2022-11-15T11:11:08;12.40;99.90
1778;DHT22;886;50.082;8.222;2022-11-15T11:13:39;12.40;99.90
1778;DHT22;886;50.082;8.222;2022-11-15T11:16:23;12.40;99.90
1778;DHT22;886;50.082;8.222;2022-11-15T11:22:25;12.40;99.90
1778;DHT22;886;50.082;8.222;2022-11-15T11:25:08;12.50;99.90
1778;DHT22;886;50.082;8.222;2022-11-15T11:27:57;12.50;99.90
1778;DHT22;886;50.082;8.222;2022-11-15T11:30:53;12.60;99.90
1778;DHT22;886;50.082;8.222;2022-11-15T11:33:31;12.70;99.90
1778;DHT22;886;50.082;8.222;2022-11-15T11:36:06;12.60;99.90
1778;DHT22;886;50.082;8.222;2022-11-15T11:38:47;12.70;99.90
1778;DHT22;886;50.082;8.222;2022-11-15T11:41:37;12.60;99.90
1778;DHT22;886;50.082;8.222;2022-11-15T11:44:27;12.60;99.90
1778;DHT22;886;50.082;8.222;2022-11-15T11:47:18;12.60;99.90
1778;DHT22;886;50.082;8.222;2022-11-15T11:49:52;12.60;99.90
1778;DHT22;886;50.082;8.222;2022-11-15T11:52:24;12.70;99.90
1778;DHT22;886;50.082;8.222;2022-11-15T11:55:01;12.70;99.90
1778;DHT22;886;50.082;8.222;2022-11-15T11:57:37;12.80;99.90
1778;DHT22;886;50.082;8.222;2022-11-15T12:00:18;12.80;99.90
1778;DHT22;886;50.082;8.222;2022-11-15T12:02:54;12.90;99.90
1778;DHT22;886;50.082;8.222;2022-11-15T12:05:40;12.90;99.90
1778;DHT22;886;50.082;8.222;2022-11-15T12:08:36;12.90;99.90
1778;DHT22;886;50.082;8.222;2022-11-15T12:11:28;12.80;99.90
1778;DHT22;886;50.082;8.222;2022-11-15T12:13:59;12.80;99.90
1778;DHT22;886;50.082;8.222;2022-11-15T12:16:30;12.90;99.90
1778;DHT22;886;50.082;8.222;2022-11-15T12:19:03;12.90;99.90
1778;DHT22;886;50.082;8.222;2022-11-15T12:21:39;12.90;99.90
1778;DHT22;886;50.082;8.222;2022-11-15T12:24:16;13.00;99.90
1778;DHT22;886;50.082;8.222;2022-11-15T12:26:59;13.00;99.90
1778;DHT22;886;50.082;8.222;2022-11-15T12:29:35;13.00;99.90
1778;DHT22;886;50.082;8.222;2022-11-15T12:32:24;12.90;99.90
1778;DHT22;886;50.082;8.222;2022-11-15T12:34:53;13.00;99.90
1778;DHT22;886;50.082;8.222;2022-11-15T12:37:49;13.00;99.90
1778;DHT22;886;50.082;8.222;2022-11-15T12:40:38;13.00;99.90
1778;DHT22;886;50.082;8.222;2022-11-15T12:46:23;13.10;99.90
1778;DHT22;886;50.082;8.222;2022-11-15T12:49:44;13.10;99.90
1778;DHT22;886;50.082;8.222;2022-11-15T12:52:15;13.10;99.90
1778;DHT22;886;50.082;8.222;2022-11-15T12:55:29;13.10;99.90
1778;DHT22;886;50.082;8.222;2022-11-15T12:58:24;13.10;99.90
1778;DHT22;886;50.082;8.222;2022-11-15T13:01:10;13.10;99.90
1778;DHT22;886;50.082;8.222;2022-11-15T13:04:25;13.20;99.90
1778;DHT22;886;50.082;8.222;2022-11-15T13:06:55;13.20;99.90
1778;DHT22;886;50.082;8.222;2022-11-15T13:09:51;13.10;99.90
1778;DHT22;886;50.082;8.222;2022-11-15T13:12:55;13.10;99.90
1778;DHT22;886;50.082;8.222;2022-11-15T13:15:45;13.10;99.90
1778;DHT22;886;50.082;8.222;2022-11-15T13:18:36;13.10;99.90
1778;DHT22;886;50.082;8.222;2022-11-15T13:21:19;13.10;99.90
1778;DHT22;886;50.082;8.222;2022-11-15T13:24:17;13.20;99.90
1778;DHT22;886;50.082;8.222;2022-11-15T13:26:53;13.20;99.90
1778;DHT22;886;50.082;8.222;2022-11-15T13:29:23;13.20;99.90
1778;DHT22;886;50.082;8.222;2022-11-15T13:31:51;13.20;99.90
1778;DHT22;886;50.082;8.222;2022-11-15T13:34:36;13.10;99.90
1778;DHT22;886;50.082;8.222;2022-11-15T13:37:30;13.20;99.90
1778;DHT22;886;50.082;8.222;2022-11-15T13:40:25;13.20;99.90
1778;DHT22;886;50.082;8.222;2022-11-15T13:43:28;13.20;99.90
1778;DHT22;886;50.082;8.222;2022-11-15T13:46:06;13.20;99.90
1778;DHT22;886;50.082;8.222;2022-11-15T13:48:35;13.30;99.90
1778;DHT22;886;50.082;8.222;2022-11-15T13:51:08;13.30;99.90
1778;DHT22;886;50.082;8.222;2022-11-15T13:53:51;13.30;99.90
1778;DHT22;886;50.082;8.222;2022-11-15T13:56:28;13.30;99.90
1778;DHT22;886;50.082;8.222;2022-11-15T13:58:56;13.30;99.90
1778;DHT22;886;50.082;8.222;2022-11-15T14:01:24;13.30;99.90
1778;DHT22;886;50.082;8.222;2022-11-15T14:03:56;13.30;99.90
1778;DHT22;886;50.082;8.222;2022-11-15T14:06:28;13.40;99.90
1778;DHT22;886;50.082;8.222;2022-11-15T14:09:35;13.40;99.90
1778;DHT22;886;50.082;8.222;2022-11-15T14:12:25;13.30;99.90
1778;DHT22;886;50.082;8.222;2022-11-15T14:14:56;13.30;99.90
1778;DHT22;886;50.082;8.222;2022-11-15T14:17:35;13.30;99.90
1778;DHT22;886;50.082;8.222;2022-11-15T14:20:24;13.20;99.90
1778;DHT22;886;50.082;8.222;2022-11-15T14:23:06;13.20;99.90
1778;DHT22;886;50.082;8.222;2022-11-15T14:25:54;13.20;99.90
1778;DHT22;886;50.082;8.222;2022-11-15T14:28:30;13.20;99.90
1778;DHT22;886;50.082;8.222;2022-11-15T14:31:09;13.10;99.90
1778;DHT22;886;50.082;8.222;2022-11-15T14:33:43;13.10;99.90
1778;DHT22;886;50.082;8.222;2022-11-15T14:36:15;13.20;99.90
1778;DHT22;886;50.082;8.222;2022-11-15T14:38:44;13.20;99.90
1778;DHT22;886;50.082;8.222;2022-11-15T14:41:35;13.20;99.90
1778;DHT22;886;50.082;8.222;2022-11-15T14:44:10;13.20;99.90
1778;DHT22;886;50.082;8.222;2022-11-15T14:46:39;13.20;99.90
1778;DHT22;886;50.082;8.222;2022-11-15T14:49:06;13.10;99.90
1778;DHT22;886;50.082;8.222;2022-11-15T14:51:33;13.10;99.90
1778;DHT22;886;50.082;8.222;2022-11-15T14:54:07;13.10;99.90
1778;DHT22;886;50.082;8.222;2022-11-15T14:56:36;13.10;99.90
1778;DHT22;886;50.082;8.222;2022-11-15T14:59:04;13.10;99.90
1778;DHT22;886;50.082;8.222;2022-11-15T15:01:36;13.10;99.90
1778;DHT22;886;50.082;8.222;2022-11-15T15:04:03;13.10;99.90
1778;DHT22;886;50.082;8.222;2022-11-15T15:06:53;13.10;99.90
1778;DHT22;886;50.082;8.222;2022-11-15T15:09:27;13.10;99.90
1778;DHT22;886;50.082;8.222;2022-11-15T15:11:55;13.10;99.90
1778;DHT22;886;50.082;8.222;2022-11-15T15:14:36;13.10;99.90
1778;DHT22;886;50.082;8.222;2022-11-15T15:17:03;13.10;99.90
1778;DHT22;886;50.082;8.222;2022-11-15T15:19:31;13.10;99.90
1778;DHT22;886;50.082;8.222;2022-11-15T15:22:03;13.10;99.90
1778;DHT22;886;50.082;8.222;2022-11-15T15:24:30;13.10;99.90
1778;DHT22;886;50.082;8.222;2022-11-15T15:26:59;13.10;99.90
1778;DHT22;886;50.082;8.222;2022-11-15T15:29:28;13.10;99.90
1778;DHT22;886;50.082;8.222;2022-11-15T15:31:56;13.10;99.90
1778;DHT22;886;50.082;8.222;2022-11-15T15:34:26;13.10;99.90
1778;DHT22;886;50.082;8.222;2022-11-15T15:37:07;13.00;99.90
1778;DHT22;886;50.082;8.222;2022-11-15T15:39:35;13.00;99.90
1778;DHT22;886;50.082;8.222;2022-11-15T15:42:04;13.00;99.90
1778;DHT22;886;50.082;8.222;2022-11-15T15:44:31;13.00;99.90
1778;DHT22;886;50.082;8.222;2022-11-15T15:46:59;13.00;99.90
1778;DHT22;886;50.082;8.222;2022-11-15T15:49:27;13.00;99.90
1778;DHT22;886;50.082;8.222;2022-11-15T15:51:54;13.00;99.90
1778;DHT22;886;50.082;8.222;2022-11-15T15:54:21;13.00;99.90
1778;DHT22;886;50.082;8.222;2022-11-15T15:56:49;13.00;99.90
1778;DHT22;886;50.082;8.222;2022-11-15T15:59:23;13.00;99.90
1778;DHT22;886;50.082;8.222;2022-11-15T16:01:50;12.90;99.90
1778;DHT22;886;50.082;8.222;2022-11-15T16:04:17;12.90;99.90
1778;DHT22;886;50.082;8.222;2022-11-15T16:06:44;12.90;99.90
1778;DHT22;886;50.082;8.222;2022-11-15T16:09:13;12.90;99.90
1778;DHT22;886;50.082;8.222;2022-11-15T16:11:44;12.90;99.90
1778;DHT22;886;50.082;8.222;2022-11-15T16:14:12;12.90;99.90
1778;DHT22;886;50.082;8.222;2022-11-15T16:16:41;12.80;99.90
1778;DHT22;886;50.082;8.222;2022-11-15T16:19:08;12.80;99.90
1778;DHT22;886;50.082;8.222;2022-11-15T16:21:37;12.80;99.90
1778;DHT22;886;50.082;8.222;2022-11-15T16:24:04;12.80;99.90
1778;DHT22;886;50.082;8.222;2022-11-15T16:26:32;12.80;99.90
1778;DHT22;886;50.082;8.222;2022-11-15T16:29:01;12.80;99.90
1778;DHT22;886;50.082;8.222;2022-11-15T16:31:28;12.80;99.90
1778;DHT22;886;50.082;8.222;2022-11-15T16:33:56;12.70;99.90
1778;DHT22;886;50.082;8.222;2022-11-15T16:36:25;12.60;99.90
1778;DHT22;886;50.082;8.222;2022-11-15T16:38:56;12.60;99.90
1778;DHT22;886;50.082;8.222;2022-11-15T16:41:24;12.70;99.90
1778;DHT22;886;50.082;8.222;2022-11-15T16:43:51;12.60;99.90
1778;DHT22;886;50.082;8.222;2022-11-15T16:46:20;12.70;99.90
1778;DHT22;886;50.082;8.222;2022-11-15T16:48:49;12.70;99.90
1778;DHT22;886;50.082;8.222;2022-11-15T16:51:18;12.70;99.90
1778;DHT22;886;50.082;8.222;2022-11-15T16:53:45;12.60;99.90
1778;DHT22;886;50.082;8.222;2022-11-15T16:56:18;12.50;99.90
1778;DHT22;886;50.082;8.222;2022-11-15T16:58:49;12.40;99.90
1778;DHT22;886;50.082;8.222;2022-11-15T17:01:18;12.40;99.90
1778;DHT22;886;50.082;8.222;2022-11-15T17:03:48;12.50;99.90
1778;DHT22;886;50.082;8.222;2022-11-15T17:06:15;12.40;99.90
1778;DHT22;886;50.082;8.222;2022-11-15T17:08:46;12.50;99.90
1778;DHT22;886;50.082;8.222;2022-11-15T17:11:15;12.50;99.90
1778;DHT22;886;50.082;8.222;2022-11-15T17:13:43;12.30;99.90
1778;DHT22;886;50.082;8.222;2022-11-15T17:16:11;12.20;99.90
1778;DHT22;886;50.082;8.222;2022-11-15T17:18:40;12.10;99.90
1778;DHT22;886;50.082;8.222;2022-11-15T17:21:10;12.10;99.90
1778;DHT22;886;50.082;8.222;2022-11-15T17:23:39;12.30;99.90
1778;DHT22;886;50.082;8.222;2022-11-15T17:26:09;12.40;99.90
1778;DHT22;886;50.082;8.222;2022-11-15T17:28:55;12.50;99.90
1778;DHT22;886;50.082;8.222;2022-11-15T17:31:23;12.40;99.90
1778;DHT22;886;50.082;8.222;2022-11-15T17:33:50;12.30;99.90